Time;durP1;ratioP1;P1;durP2;ratioP2;P2;SDS_P1;SDS_P2;PMS_P1;PMS_P2;Temp;Humidity;BMP_temperature;BMP_pressure;BME280_temperature;BME280_humidity;BME280_pressure;Samples;Min_cycle;Max_cycle;Signal;HPM_P1;HPM_P2
2024/03/08 00:00:09;;;;;;;;;;;;;;;20.06;37.55;102226.84;5065623;28;19955;-71
2024/03/08 00:02:37;;;;;;;;;;;;;;;20.02;37.57;102226.31;5067281;28;19920;-71
2024/03/08 00:05:04;;;;;;;;;;;;;;;20.10;37.48;102218.47;5069938;28;20703;-72
2024/03/08 00:07:29;;;;;;;;;;;;;;;20.05;37.47;102219.91;5064709;28;19927;-71
2024/03/08 00:09:54;;;;;;;;;;;;;;;20.08;37.32;102219.59;5063774;28;19931;-70
2024/03/08 00:12:20;;;;;;;;;;;;;;;20.08;37.32;102211.66;5064880;28;20891;-71
2024/03/08 00:14:45;;;;;;;;;;;;;;;20.09;37.21;102211.53;5069213;28;20393;-72
2024/03/08 00:17:12;;;;;;;;;;;;;;;20.05;37.33;102214.63;5060621;28;19931;-71
2024/03/08 00:19:37;;;;;;;;;;;;;;;20.01;37.35;102203.50;5063897;28;19947;-72
2024/03/08 00:22:03;;;;;;;;;;;;;;;20.00;37.46;102204.50;5067679;28;19924;-71
2024/03/08 00:24:28;;;;;;;;;;;;;;;20.00;37.40;102199.19;5066564;28;19921;-71
2024/03/08 00:26:54;;;;;;;;;;;;;;;19.99;37.35;102202.81;5071813;28;19924;-71
2024/03/08 00:29:20;;;;;;;;;;;;;;;19.98;37.38;102203.81;5063696;28;20000;-71
2024/03/08 00:31:45;;;;;;;;;;;;;;;19.91;37.42;102208.84;5064498;28;20047;-71
2024/03/08 00:34:11;;;;;;;;;;;;;;;19.93;37.40;102198.13;5070442;28;19927;-72
2024/03/08 00:36:37;;;;;;;;;;;;;;;19.92;37.52;102207.03;5071079;28;19927;-71
2024/03/08 00:39:06;;;;;;;;;;;;;;;19.91;37.43;102206.19;5069251;28;19928;-71
2024/03/08 00:41:31;;;;;;;;;;;;;;;19.87;37.41;102210.09;5065204;28;20340;-71
2024/03/08 00:43:57;;;;;;;;;;;;;;;19.91;37.43;102208.00;5074491;28;19920;-71
2024/03/08 00:46:22;;;;;;;;;;;;;;;19.92;37.35;102207.03;5071309;28;21464;-71
2024/03/08 00:48:48;;;;;;;;;;;;;;;19.79;37.57;102209.19;5072995;28;19927;-71
2024/03/08 00:51:15;;;;;;;;;;;;;;;19.78;37.50;102211.00;5070430;28;19921;-71
2024/03/08 00:53:41;;;;;;;;;;;;;;;19.80;37.48;102209.03;5067904;28;19955;-71
2024/03/08 00:56:09;;;;;;;;;;;;;;;19.81;37.48;102196.66;5066725;28;20036;-71
2024/03/08 00:58:38;;;;;;;;;;;;;;;19.76;37.44;102196.28;5065422;28;20465;-71
2024/03/08 01:01:04;;;;;;;;;;;;;;;19.83;37.32;102190.25;5061393;28;20013;-71
2024/03/08 01:03:31;;;;;;;;;;;;;;;19.71;37.58;102185.28;5060638;28;20163;-71
2024/03/08 01:05:57;;;;;;;;;;;;;;;19.78;37.56;102183.75;5062463;28;20296;-71
2024/03/08 01:08:23;;;;;;;;;;;;;;;19.80;37.44;102187.91;5065442;28;19927;-71
2024/03/08 01:10:50;;;;;;;;;;;;;;;19.82;37.32;102182.47;5062475;28;19970;-72
2024/03/08 01:13:16;;;;;;;;;;;;;;;19.64;37.65;102178.94;5063395;28;19947;-73
2024/03/08 01:15:41;;;;;;;;;;;;;;;19.69;37.52;102169.56;5070716;28;19920;-72
2024/03/08 01:18:06;;;;;;;;;;;;;;;19.67;37.62;102160.13;5069984;28;19928;-73
2024/03/08 01:20:32;;;;;;;;;;;;;;;19.71;37.46;102164.13;5069520;28;19931;-70
2024/03/08 01:22:57;;;;;;;;;;;;;;;19.61;37.56;102158.91;5068109;28;19924;-72
2024/03/08 01:25:23;;;;;;;;;;;;;;;19.73;37.42;102151.59;5070519;28;20324;-73
2024/03/08 01:27:48;;;;;;;;;;;;;;;19.65;37.54;102144.44;5064005;28;19921;-73
2024/03/08 01:30:17;;;;;;;;;;;;;;;19.67;37.44;102139.00;5056948;28;19928;-72
2024/03/08 01:32:43;;;;;;;;;;;;;;;19.50;37.77;102138.75;5089897;27;19920;-73
2024/03/08 01:35:09;;;;;;;;;;;;;;;19.61;37.48;102133.31;5069183;28;20523;-73
2024/03/08 01:37:34;;;;;;;;;;;;;;;19.58;37.59;102132.78;5072482;28;19923;-73
2024/03/08 01:40:00;;;;;;;;;;;;;;;19.52;37.62;102131.50;5062673;28;19920;-73
2024/03/08 01:42:26;;;;;;;;;;;;;;;19.56;37.68;102127.63;5063184;28;19959;-72
2024/03/08 01:44:51;;;;;;;;;;;;;;;19.54;37.74;102118.19;5064301;28;19931;-72
2024/03/08 01:47:17;;;;;;;;;;;;;;;19.57;37.68;102115.28;5065558;28;20484;-73
2024/03/08 01:49:43;;;;;;;;;;;;;;;19.54;37.64;102115.53;5063746;28;19955;-72
2024/03/08 01:52:08;;;;;;;;;;;;;;;19.64;37.41;102113.69;5058809;28;20408;-72
2024/03/08 01:54:34;;;;;;;;;;;;;;;19.54;37.46;102105.81;5063595;28;19924;-72
2024/03/08 01:57:00;;;;;;;;;;;;;;;19.53;37.60;102105.94;5060812;28;19956;-72
2024/03/08 01:59:26;;;;;;;;;;;;;;;19.76;37.11;102101.94;5059760;28;19930;-72
2024/03/08 02:01:55;;;;;;;;;;;;;;;19.75;37.16;102097.66;5070110;28;19916;-72
2024/03/08 02:04:21;;;;;;;;;;;;;;;19.80;37.03;102099.84;5059369;28;19916;-72
2024/03/08 02:06:48;;;;;;;;;;;;;;;19.69;37.23;102092.94;5062368;28;19927;-72
2024/03/08 02:09:13;;;;;;;;;;;;;;;19.68;37.33;102095.72;5059823;28;19928;-72
2024/03/08 02:11:40;;;;;;;;;;;;;;;19.71;37.23;102098.06;5069438;28;19956;-72
2024/03/08 02:14:06;;;;;;;;;;;;;;;19.74;37.22;102095.13;5065367;28;19970;-73
2024/03/08 02:16:32;;;;;;;;;;;;;;;19.81;36.90;102086.47;5070917;28;20195;-72
2024/03/08 02:18:58;;;;;;;;;;;;;;;19.80;37.07;102084.81;5057037;28;19931;-72
2024/03/08 02:21:24;;;;;;;;;;;;;;;19.82;37.01;102084.66;5063343;28;19916;-72
2024/03/08 02:23:52;;;;;;;;;;;;;;;19.64;37.30;102087.28;5074695;28;20322;-72
2024/03/08 02:26:17;;;;;;;;;;;;;;;19.71;37.20;102093.63;5100080;27;19924;-73
2024/03/08 02:28:43;;;;;;;;;;;;;;;19.67;37.30;102086.97;5063479;28;19966;-73
2024/03/08 02:31:09;;;;;;;;;;;;;;;19.60;37.40;102089.38;5063646;28;19919;-73
2024/03/08 02:33:34;;;;;;;;;;;;;;;19.66;37.23;102081.84;5066261;28;19932;-72
2024/03/08 02:36:00;;;;;;;;;;;;;;;19.67;37.14;102081.69;5061989;28;20001;-71
2024/03/08 02:38:26;;;;;;;;;;;;;;;19.64;37.28;102084.63;5064488;28;19950;-72
2024/03/08 02:40:52;;;;;;;;;;;;;;;19.59;37.44;102081.59;5065988;28;20604;-70
2024/03/08 02:43:18;;;;;;;;;;;;;;;19.61;37.29;102077.00;5071369;28;19924;-72
2024/03/08 02:45:44;;;;;;;;;;;;;;;19.66;37.23;102077.38;5073013;28;19943;-71
2024/03/08 02:48:10;;;;;;;;;;;;;;;19.55;37.37;102072.28;5065400;28;20300;-72
2024/03/08 02:50:36;;;;;;;;;;;;;;;19.47;37.37;102057.16;5056744;28;19970;-72
2024/03/08 02:53:02;;;;;;;;;;;;;;;19.53;37.30;102074.22;5076154;28;19916;-72
2024/03/08 02:55:27;;;;;;;;;;;;;;;19.53;37.28;102072.41;5066867;28;20294;-71
2024/03/08 02:57:56;;;;;;;;;;;;;;;19.48;37.43;102066.75;5068760;28;19921;-71
2024/03/08 03:00:22;;;;;;;;;;;;;;;19.53;37.37;102072.41;5069233;28;19927;-71
2024/03/08 03:02:48;;;;;;;;;;;;;;;19.52;37.36;102073.38;5074089;28;21545;-72
2024/03/08 03:05:14;;;;;;;;;;;;;;;19.48;37.48;102064.09;5064184;28;20034;-72
2024/03/08 03:07:39;;;;;;;;;;;;;;;19.46;37.45;102067.88;5071466;28;19928;-72
2024/03/08 03:10:06;;;;;;;;;;;;;;;19.32;37.61;102064.72;5072714;28;21637;-71
2024/03/08 03:12:33;;;;;;;;;;;;;;;19.28;37.76;102058.09;5061960;28;19951;-71
2024/03/08 03:14:59;;;;;;;;;;;;;;;19.32;37.67;102059.44;5072165;28;19931;-71
2024/03/08 03:17:24;;;;;;;;;;;;;;;19.41;37.50;102063.03;5063865;28;19924;-72
2024/03/08 03:19:51;;;;;;;;;;;;;;;19.39;37.45;102062.34;5070369;28;19962;-71
2024/03/08 03:22:17;;;;;;;;;;;;;;;19.51;37.21;102055.03;5064628;28;20263;-72
2024/03/08 03:24:42;;;;;;;;;;;;;;;19.37;37.47;102055.53;5075708;28;19920;-72
2024/03/08 03:27:10;;;;;;;;;;;;;;;19.37;37.51;102059.00;5064293;28;20444;-72
2024/03/08 03:29:36;;;;;;;;;;;;;;;19.37;37.45;102048.44;5060244;28;19921;-72
2024/03/08 03:32:03;;;;;;;;;;;;;;;19.25;37.63;102050.47;5072246;28;19931;-72
2024/03/08 03:34:29;;;;;;;;;;;;;;;19.37;37.33;102052.88;5062145;28;19920;-72
2024/03/08 03:36:55;;;;;;;;;;;;;;;19.39;37.26;102049.16;5067039;28;19951;-72
2024/03/08 03:39:22;;;;;;;;;;;;;;;19.37;37.48;102044.97;5069040;28;19924;-71
2024/03/08 03:41:51;;;;;;;;;;;;;;;19.36;37.36;102045.94;5063960;28;20356;-72
2024/03/08 03:44:17;;;;;;;;;;;;;;;19.28;37.56;102046.69;5065054;28;19923;-72
2024/03/08 03:46:46;;;;;;;;;;;;;;;19.35;37.47;102041.63;5054930;28;20238;-72
2024/03/08 03:49:12;;;;;;;;;;;;;;;19.38;37.37;102041.34;5068897;28;19924;-72
2024/03/08 03:51:37;;;;;;;;;;;;;;;19.33;37.35;102037.34;5101722;28;20389;-72
2024/03/08 03:54:03;;;;;;;;;;;;;;;19.38;37.29;102031.59;5070843;28;19916;-72
2024/03/08 03:56:29;;;;;;;;;;;;;;;19.51;36.93;102028.63;5060832;28;19939;-72
2024/03/08 03:58:56;;;;;;;;;;;;;;;19.62;36.88;102023.16;5059254;28;19988;-71
2024/03/08 04:01:21;;;;;;;;;;;;;;;19.63;36.90;102022.19;5064295;28;19919;-72
2024/03/08 04:03:47;;;;;;;;;;;;;;;19.65;36.89;102019.41;5060416;28;19927;-72
2024/03/08 04:06:12;;;;;;;;;;;;;;;19.63;36.87;102016.91;5058561;28;20431;-72
2024/03/08 04:08:38;;;;;;;;;;;;;;;19.59;36.98;102010.25;5063811;28;19916;-72
2024/03/08 04:11:03;;;;;;;;;;;;;;;19.48;37.09;102013.91;5061430;28;19925;-72
2024/03/08 04:13:29;;;;;;;;;;;;;;;19.54;37.25;102015.97;5066583;28;19915;-72
2024/03/08 04:15:54;;;;;;;;;;;;;;;19.52;37.14;102007.34;5065055;28;20043;-72
2024/03/08 04:18:20;;;;;;;;;;;;;;;19.49;37.09;102007.63;5102829;28;19916;-72
2024/03/08 04:20:45;;;;;;;;;;;;;;;19.50;37.16;102003.19;5065201;28;19966;-72
2024/03/08 04:23:11;;;;;;;;;;;;;;;19.45;37.13;102005.44;5059791;28;20355;-72
2024/03/08 04:25:36;;;;;;;;;;;;;;;19.58;36.95;102003.31;5068147;28;19982;-71
2024/03/08 04:28:02;;;;;;;;;;;;;;;19.44;37.11;102003.78;5063434;28;19931;-70
2024/03/08 04:30:28;;;;;;;;;;;;;;;19.48;37.09;101997.22;5066988;28;19932;-71
2024/03/08 04:32:54;;;;;;;;;;;;;;;19.46;37.19;101999.19;5066170;28;19920;-71
2024/03/08 04:35:20;;;;;;;;;;;;;;;19.39;37.14;101998.09;5065804;28;19921;-70
2024/03/08 04:37:45;;;;;;;;;;;;;;;19.43;37.23;101999.50;5057891;28;20330;-71
2024/03/08 04:40:11;;;;;;;;;;;;;;;19.43;37.20;101997.69;5057750;28;19996;-71
2024/03/08 04:42:37;;;;;;;;;;;;;;;19.37;37.31;101992.13;5060668;28;19923;-71
2024/03/08 04:45:04;;;;;;;;;;;;;;;19.37;37.17;101989.50;5063919;28;20348;-71
2024/03/08 04:47:29;;;;;;;;;;;;;;;19.32;37.17;101982.03;5069883;28;19921;-73
2024/03/08 04:49:56;;;;;;;;;;;;;;;19.30;37.27;101981.34;5064653;28;19927;-71
2024/03/08 04:52:22;;;;;;;;;;;;;;;19.29;37.29;101984.97;5060825;28;20658;-71
2024/03/08 04:54:47;;;;;;;;;;;;;;;19.46;36.99;101981.53;5068867;28;19931;-72
2024/03/08 04:57:12;;;;;;;;;;;;;;;19.64;36.67;101971.00;5064625;28;19917;-72
2024/03/08 04:59:38;;;;;;;;;;;;;;;19.84;36.27;101966.38;5067353;28;19920;-71
2024/03/08 05:02:03;;;;;;;;;;;;;;;19.79;36.47;101972.13;5068409;28;19931;-71
2024/03/08 05:04:29;;;;;;;;;;;;;;;19.83;36.32;101968.19;5067960;28;19916;-71
2024/03/08 05:06:55;;;;;;;;;;;;;;;19.71;36.60;101968.56;5057582;28;20003;-72
2024/03/08 05:09:20;;;;;;;;;;;;;;;19.68;36.72;101972.34;5066011;28;19963;-72
2024/03/08 05:11:50;;;;;;;;;;;;;;;19.61;36.77;101974.78;5072385;28;19920;-72
2024/03/08 05:14:19;;;;;;;;;;;;;;;19.70;36.68;101962.47;5064427;28;19920;-72
2024/03/08 05:16:48;;;;;;;;;;;;;;;19.76;36.42;101961.88;5071056;28;19917;-72
2024/03/08 05:19:20;;;;;;;;;;;;;;;19.70;36.58;101966.91;5070073;28;19928;-72
2024/03/08 05:21:46;;;;;;;;;;;;;;;19.67;36.73;101968.06;5067910;28;19916;-71
2024/03/08 05:24:13;;;;;;;;;;;;;;;19.68;36.66;101958.31;5073324;28;19919;-72
2024/03/08 05:26:38;;;;;;;;;;;;;;;19.62;36.74;101965.03;5067773;28;19924;-72
2024/03/08 05:29:04;;;;;;;;;;;;;;;19.64;36.80;101956.97;5073743;28;19978;-72
2024/03/08 05:31:35;;;;;;;;;;;;;;;19.63;36.75;101971.16;5071838;28;19985;-72
2024/03/08 05:34:01;;;;;;;;;;;;;;;19.68;36.63;101963.59;5067146;28;19955;-72
2024/03/08 05:36:26;;;;;;;;;;;;;;;19.61;36.80;101960.75;5096414;27;19963;-72
2024/03/08 05:38:52;;;;;;;;;;;;;;;19.55;36.99;101948.94;5058606;28;20019;-72
2024/03/08 05:41:18;;;;;;;;;;;;;;;19.58;36.85;101956.59;5063343;28;19923;-72
2024/03/08 05:43:43;;;;;;;;;;;;;;;19.56;36.86;101958.53;5068776;28;20674;-72
2024/03/08 05:46:11;;;;;;;;;;;;;;;19.57;36.74;101954.09;5069246;28;19924;-72
2024/03/08 05:48:37;;;;;;;;;;;;;;;19.55;36.84;101956.88;5066368;28;20022;-72
2024/03/08 05:51:03;;;;;;;;;;;;;;;19.51;36.88;101962.56;5061360;28;19954;-71
2024/03/08 05:53:31;;;;;;;;;;;;;;;19.47;36.89;101956.78;5066094;28;19924;-72
2024/03/08 05:55:57;;;;;;;;;;;;;;;19.50;36.95;101961.75;5061302;28;19928;-72
2024/03/08 05:58:22;;;;;;;;;;;;;;;19.48;36.85;101957.59;5068685;28;19916;-72
2024/03/08 06:00:48;;;;;;;;;;;;;;;19.43;36.98;101959.88;5062194;28;20580;-72
2024/03/08 06:03:13;;;;;;;;;;;;;;;19.37;37.16;101956.00;5062937;28;19924;-72
2024/03/08 06:05:41;;;;;;;;;;;;;;;19.39;37.07;101966.41;5066138;28;19927;-72
2024/03/08 06:08:07;;;;;;;;;;;;;;;19.44;37.06;101959.72;5066243;28;19916;-72
2024/03/08 06:10:33;;;;;;;;;;;;;;;19.50;36.87;101959.09;5064456;28;20390;-72
2024/03/08 06:12:59;;;;;;;;;;;;;;;19.40;37.02;101961.00;5068598;28;19920;-72
2024/03/08 06:15:25;;;;;;;;;;;;;;;19.34;37.06;101966.84;5066127;28;19920;-72
2024/03/08 06:17:52;;;;;;;;;;;;;;;19.31;37.06;101957.44;5063056;28;20056;-72
2024/03/08 06:20:18;;;;;;;;;;;;;;;19.35;37.14;101959.75;5066205;28;19969;-71
2024/03/08 06:22:44;;;;;;;;;;;;;;;19.32;37.15;101964.38;5066588;28;19928;-71
2024/03/08 06:25:13;;;;;;;;;;;;;;;19.31;36.97;101948.69;5062405;28;19920;-72
2024/03/08 06:27:40;;;;;;;;;;;;;;;19.24;37.35;101959.00;5084916;28;19920;-72
2024/03/08 06:30:06;;;;;;;;;;;;;;;19.28;37.00;101949.81;5059137;28;19920;-71
2024/03/08 06:32:35;;;;;;;;;;;;;;;19.23;37.14;101957.34;5066283;28;19974;-71
2024/03/08 06:35:01;;;;;;;;;;;;;;;19.27;37.17;101957.88;5067907;28;19928;-72
2024/03/08 06:37:26;;;;;;;;;;;;;;;19.29;37.15;101953.28;5071503;28;19920;-71
2024/03/08 06:39:54;;;;;;;;;;;;;;;19.31;37.07;101956.59;5065510;28;19974;-71
2024/03/08 06:42:19;;;;;;;;;;;;;;;19.34;37.08;101953.66;5100647;27;19921;-71
2024/03/08 06:44:49;;;;;;;;;;;;;;;19.33;37.12;101952.00;5066414;28;20392;-70
2024/03/08 06:47:15;;;;;;;;;;;;;;;19.28;37.07;101947.16;5069245;28;19924;-71
2024/03/08 06:49:41;;;;;;;;;;;;;;;19.33;37.06;101957.28;5064649;28;20023;-71
2024/03/08 06:52:08;;;;;;;;;;;;;;;19.27;37.12;101950.78;5074087;28;20046;-70
2024/03/08 06:54:35;;;;;;;;;;;;;;;19.21;37.31;101950.53;5061686;28;20563;-71
2024/03/08 06:57:03;;;;;;;;;;;;;;;19.22;37.21;101947.78;5067412;28;20370;-71
2024/03/08 06:59:28;;;;;;;;;;;;;;;19.26;37.21;101949.13;5065398;28;19997;-71
2024/03/08 07:01:54;;;;;;;;;;;;;;;19.21;37.23;101943.47;5067392;28;20001;-71
2024/03/08 07:04:21;;;;;;;;;;;;;;;19.26;37.26;101951.78;5059880;28;19928;-71
2024/03/08 07:06:49;;;;;;;;;;;;;;;19.24;37.26;101955.53;5080489;28;19927;-71
2024/03/08 07:09:16;;;;;;;;;;;;;;;19.13;37.22;101943.38;5062229;28;19924;-71
2024/03/08 07:11:42;;;;;;;;;;;;;;;19.64;36.59;101946.38;5062056;28;19971;-71
2024/03/08 07:14:08;;;;;;;;;;;;;;;20.18;35.81;101951.47;5064388;28;19935;-71
2024/03/08 07:16:35;;;;;;;;;;;;;;;20.68;34.85;101944.69;5063152;28;20308;-71
2024/03/08 07:19:01;;;;;;;;;;;;;;;21.16;34.12;101949.31;5066628;28;19943;-71
2024/03/08 07:21:26;;;;;;;;;;;;;;;21.45;33.87;101940.97;5067902;28;19916;-71
2024/03/08 07:26:27;;;;;;;;;;;;;;;21.08;34.58;101941.34;5065773;28;20598;-71
2024/03/08 07:28:54;;;;;;;;;;;;;;;20.96;34.48;101943.44;5061472;28;19917;-71
2024/03/08 07:31:34;;;;;;;;;;;;;;;20.78;34.96;101940.06;5063118;28;19916;-72
2024/03/08 07:34:00;;;;;;;;;;;;;;;20.77;34.97;101943.72;5058659;28;19952;-72
2024/03/08 07:36:25;;;;;;;;;;;;;;;20.69;35.25;101933.94;5066740;28;19979;-72
2024/03/08 07:38:51;;;;;;;;;;;;;;;20.64;35.25;101930.06;5065220;28;19928;-72
2024/03/08 07:41:16;;;;;;;;;;;;;;;20.50;35.40;101929.69;5062759;28;19920;-71
2024/03/08 07:43:42;;;;;;;;;;;;;;;20.46;35.60;101928.34;5089764;28;20308;-71
2024/03/08 07:46:10;;;;;;;;;;;;;;;20.46;35.63;101923.03;5065096;28;19939;-71
2024/03/08 07:48:36;;;;;;;;;;;;;;;20.29;36.04;101923.06;5060584;28;19932;-71
2024/03/08 07:51:02;;;;;;;;;;;;;;;20.29;36.07;101912.50;5062715;28;20034;-71
2024/03/08 07:53:28;;;;;;;;;;;;;;;20.23;36.09;101909.50;5055101;28;19921;-71
2024/03/08 07:55:54;;;;;;;;;;;;;;;20.19;36.27;101908.16;5054743;28;19948;-71
2024/03/08 07:58:19;;;;;;;;;;;;;;;20.20;36.20;101909.81;5064178;28;19931;-71
2024/03/08 08:00:45;;;;;;;;;;;;;;;20.15;36.29;101898.06;5094358;28;19989;-71
2024/03/08 08:03:10;;;;;;;;;;;;;;;20.19;36.15;101900.22;5057665;28;19920;-71
2024/03/08 08:05:38;;;;;;;;;;;;;;;20.18;36.26;101898.56;5071114;28;19978;-71
2024/03/08 08:08:06;;;;;;;;;;;;;;;20.14;36.29;101899.88;5064917;28;19920;-71
2024/03/08 08:10:34;;;;;;;;;;;;;;;20.15;36.38;101898.06;5061769;28;19981;-71
2024/03/08 08:13:00;;;;;;;;;;;;;;;20.18;36.19;101895.91;5061224;28;19944;-70
2024/03/08 08:15:25;;;;;;;;;;;;;;;20.12;36.33;101891.25;5064689;28;20657;-70
2024/03/08 08:17:51;;;;;;;;;;;;;;;20.15;36.14;101895.41;5060854;28;19920;-71
2024/03/08 08:20:18;;;;;;;;;;;;;;;20.18;36.12;101892.44;5065047;28;19928;-71
2024/03/08 08:22:44;;;;;;;;;;;;;;;20.15;36.25;101885.66;5064231;28;19947;-72
2024/03/08 08:25:12;;;;;;;;;;;;;;;20.15;36.21;101888.31;5058628;28;21358;-73
2024/03/08 08:27:39;;;;;;;;;;;;;;;20.13;36.45;101884.16;5061708;28;19949;-72
2024/03/08 08:30:07;;;;;;;;;;;;;;;20.10;36.41;101882.63;5059493;28;19920;-72
2024/03/08 08:32:36;;;;;;;;;;;;;;;20.13;36.38;101885.00;5062750;28;19916;-71
2024/03/08 08:35:02;;;;;;;;;;;;;;;20.08;36.53;101887.25;5063111;28;20343;-72
2024/03/08 08:37:28;;;;;;;;;;;;;;;20.15;36.44;101874.25;5061665;28;19924;-71
2024/03/08 08:39:54;;;;;;;;;;;;;;;20.28;36.16;101872.00;5060247;28;19986;-72
2024/03/08 08:42:19;;;;;;;;;;;;;;;20.44;35.84;101872.09;5068039;28;20307;-73
2024/03/08 08:44:45;;;;;;;;;;;;;;;20.36;35.91;101861.47;5063866;28;19924;-72
2024/03/08 08:47:11;;;;;;;;;;;;;;;20.33;36.20;101853.84;5064552;28;19966;-73
2024/03/08 08:49:37;;;;;;;;;;;;;;;20.36;36.03;101864.13;5066576;28;20523;-71
2024/03/08 08:52:03;;;;;;;;;;;;;;;20.29;36.05;101851.66;5064176;28;20589;-71
2024/03/08 08:54:28;;;;;;;;;;;;;;;20.27;36.35;101851.81;5064258;28;19963;-71
2024/03/08 08:56:53;;;;;;;;;;;;;;;20.23;36.25;101846.03;5066564;28;19970;-72
2024/03/08 08:59:19;;;;;;;;;;;;;;;20.32;36.14;101849.56;5066676;28;19955;-71
2024/03/08 09:01:47;;;;;;;;;;;;;;;20.31;36.15;101847.06;5067627;28;19926;-72
2024/03/08 09:04:12;;;;;;;;;;;;;;;20.27;36.29;101845.69;5044276;28;19916;-71
2024/03/08 09:06:38;;;;;;;;;;;;;;;20.27;36.20;101843.06;5064316;28;19916;-71
2024/03/08 09:09:04;;;;;;;;;;;;;;;20.25;36.26;101845.03;5063365;28;19923;-72
2024/03/08 09:11:30;;;;;;;;;;;;;;;20.23;36.32;101837.25;5059195;28;20026;-72
2024/03/08 09:13:57;;;;;;;;;;;;;;;20.19;36.43;101825.34;5067275;28;19925;-72
2024/03/08 09:16:22;;;;;;;;;;;;;;;20.21;36.49;101821.53;5060555;28;19925;-72
2024/03/08 09:18:48;;;;;;;;;;;;;;;20.18;36.50;101821.03;5061531;28;20035;-74
2024/03/08 09:21:14;;;;;;;;;;;;;;;20.22;36.46;101820.56;5060688;28;20473;-74
2024/03/08 09:23:41;;;;;;;;;;;;;;;20.22;36.40;101827.66;5063410;28;20778;-74
2024/03/08 09:26:09;;;;;;;;;;;;;;;20.20;36.43;101827.00;5066932;28;19931;-73
2024/03/08 09:28:35;;;;;;;;;;;;;;;20.15;36.44;101830.13;5058793;28;19924;-73
2024/03/08 09:31:01;;;;;;;;;;;;;;;20.12;36.53;101813.75;5067753;28;19920;-73
2024/03/08 09:33:28;;;;;;;;;;;;;;;20.10;36.47;101813.88;5060344;28;19931;-74
2024/03/08 09:35:54;;;;;;;;;;;;;;;20.15;36.29;101810.78;5062411;28;19920;-74
2024/03/08 09:38:20;;;;;;;;;;;;;;;20.14;36.49;101809.97;5058971;28;19990;-74
2024/03/08 09:40:45;;;;;;;;;;;;;;;20.14;36.43;101807.31;5092686;27;19957;-73
2024/03/08 09:43:14;;;;;;;;;;;;;;;20.10;36.46;101794.53;5062898;28;19916;-73
2024/03/08 09:45:41;;;;;;;;;;;;;;;20.13;36.49;101788.97;5059238;28;19942;-73
2024/03/08 09:48:11;;;;;;;;;;;;;;;20.13;36.36;101791.59;5092829;27;19959;-74
2024/03/08 09:50:38;;;;;;;;;;;;;;;20.04;36.54;101787.25;5092768;27;19916;-72
2024/03/08 09:53:03;;;;;;;;;;;;;;;20.07;36.49;101781.63;5057107;28;19912;-72
2024/03/08 09:55:33;;;;;;;;;;;;;;;20.08;36.50;101778.00;5065383;28;19924;-72
2024/03/08 10:00:58;;;;;;;;;;;;;;;20.12;36.37;101766.97;5041747;28;19920;-73
2024/03/08 10:03:25;;;;;;;;;;;;;;;20.15;36.35;101760.53;5059283;28;19916;-73
2024/03/08 10:05:51;;;;;;;;;;;;;;;20.14;36.28;101765.00;5053242;28;20010;-72
2024/03/08 10:08:16;;;;;;;;;;;;;;;20.08;36.47;101755.03;5063080;28;19978;-72
2024/03/08 10:10:42;;;;;;;;;;;;;;;20.16;36.26;101759.56;5055676;28;19921;-73
2024/03/08 10:13:09;;;;;;;;;;;;;;;20.12;36.30;101750.28;5062225;28;20338;-71
2024/03/08 10:15:34;;;;;;;;;;;;;;;20.12;36.39;101745.00;5066621;28;20321;-73
2024/03/08 10:18:02;;;;;;;;;;;;;;;20.13;36.15;101742.19;5058975;28;19924;-71
2024/03/08 10:20:28;;;;;;;;;;;;;;;20.14;36.23;101743.03;5062515;28;19959;-71
2024/03/08 10:22:55;;;;;;;;;;;;;;;20.13;36.19;101736.06;5061503;28;19925;-71
2024/03/08 10:25:20;;;;;;;;;;;;;;;20.17;36.17;101737.41;5062521;28;19922;-71
2024/03/08 10:27:46;;;;;;;;;;;;;;;20.17;36.03;101742.69;5061145;28;20378;-72
2024/03/08 10:30:16;;;;;;;;;;;;;;;20.14;36.07;101727.97;5061861;28;20900;-71
2024/03/08 10:32:41;;;;;;;;;;;;;;;20.16;36.14;101731.28;5067812;28;20652;-71
2024/03/08 10:35:11;;;;;;;;;;;;;;;20.16;36.06;101718.06;5068797;28;19920;-73
2024/03/08 10:37:44;;;;;;;;;;;;;;;20.22;35.95;101714.78;5060637;28;20009;-72
2024/03/08 10:40:10;;;;;;;;;;;;;;;20.32;35.76;101717.28;5056500;28;19916;-71
2024/03/08 10:42:40;;;;;;;;;;;;;;;20.33;35.75;101718.94;5063219;28;20275;-72
2024/03/08 10:45:07;;;;;;;;;;;;;;;20.26;35.99;101704.69;5062196;28;19931;-73
2024/03/08 10:47:36;;;;;;;;;;;;;;;20.30;35.92;101702.56;5057151;28;19917;-73
2024/03/08 10:50:20;;;;;;;;;;;;;;;20.25;36.10;101696.91;5087522;27;19947;-72
2024/03/08 10:52:48;;;;;;;;;;;;;;;20.27;35.97;101698.41;5057889;28;19916;-72
2024/03/08 10:55:15;;;;;;;;;;;;;;;20.27;35.91;101693.13;5058002;28;19924;-73
2024/03/08 10:57:42;;;;;;;;;;;;;;;20.19;36.11;101688.66;5061433;28;19928;-72
2024/03/08 11:00:11;;;;;;;;;;;;;;;20.23;35.99;101689.16;5053879;28;19927;-72
2024/03/08 11:02:37;;;;;;;;;;;;;;;20.18;36.05;101691.47;5059215;28;20003;-72
2024/03/08 11:05:03;;;;;;;;;;;;;;;20.16;36.04;101681.03;5063392;28;20011;-71
2024/03/08 11:07:34;;;;;;;;;;;;;;;20.18;36.00;101672.94;5059293;28;20008;-73
2024/03/08 11:10:04;;;;;;;;;;;;;;;20.11;35.83;101670.13;5062407;28;19920;-72
2024/03/08 11:12:36;;;;;;;;;;;;;;;20.31;35.83;101675.13;5061428;28;20002;-72
2024/03/08 11:15:11;;;;;;;;;;;;;;;20.32;35.79;101671.50;5062525;28;19997;-72
2024/03/08 11:17:38;;;;;;;;;;;;;;;20.26;35.77;101667.66;5057103;28;20255;-72
2024/03/08 11:20:15;;;;;;;;;;;;;;;20.38;35.48;101665.53;5060688;28;19916;-72
2024/03/08 11:22:48;;;;;;;;;;;;;;;20.30;35.75;101660.25;5064616;28;20022;-72
2024/03/08 11:25:39;;;;;;;;;;;;;;;20.36;35.71;101649.00;5064031;28;19997;-71
2024/03/08 11:28:07;;;;;;;;;;;;;;;20.28;35.89;101648.97;5061090;28;20264;-72
2024/03/08 11:30:33;;;;;;;;;;;;;;;20.27;35.86;101642.03;5090827;28;19920;-72
2024/03/08 11:33:01;;;;;;;;;;;;;;;20.26;35.91;101643.03;5062987;28;20331;-74
2024/03/08 11:35:27;;;;;;;;;;;;;;;20.25;35.81;101636.09;5087122;27;20696;-76
2024/03/08 11:37:53;;;;;;;;;;;;;;;20.20;35.83;101626.84;5060387;28;19920;-76
2024/03/08 11:40:19;;;;;;;;;;;;;;;20.26;35.61;101635.09;5055061;28;20048;-74
2024/03/08 11:42:47;;;;;;;;;;;;;;;20.22;35.84;101624.03;5060502;28;19920;-71
2024/03/08 11:45:13;;;;;;;;;;;;;;;20.23;35.83;101631.78;5058688;28;19916;-72
2024/03/08 11:47:41;;;;;;;;;;;;;;;20.19;35.76;101627.00;5062068;28;19923;-73
2024/03/08 11:50:10;;;;;;;;;;;;;;;20.26;35.69;101617.41;5062215;28;19931;-72
2024/03/08 11:52:36;;;;;;;;;;;;;;;20.29;35.54;101618.91;5067330;28;19927;-72
2024/03/08 11:55:02;;;;;;;;;;;;;;;20.33;35.72;101614.97;5066119;28;19923;-70
2024/03/08 11:57:28;;;;;;;;;;;;;;;20.27;35.81;101611.13;5068989;28;20424;-73
2024/03/08 11:59:56;;;;;;;;;;;;;;;20.26;35.75;101609.47;5064075;28;19927;-70
2024/03/08 12:02:22;;;;;;;;;;;;;;;20.41;35.55;101609.69;5067156;28;19986;-71
2024/03/08 12:04:55;;;;;;;;;;;;;;;20.31;35.69;101607.19;5061478;28;19923;-72
2024/03/08 12:07:21;;;;;;;;;;;;;;;20.31;35.69;101601.91;5076261;28;19924;-71
2024/03/08 12:10:11;;;;;;;;;;;;;;;20.34;35.66;101592.81;5062902;28;19920;-72
2024/03/08 12:12:39;;;;;;;;;;;;;;;20.34;35.46;101582.22;5060954;28;19926;-72
2024/03/08 12:15:04;;;;;;;;;;;;;;;20.34;35.58;101588.34;5070224;28;19977;-72
2024/03/08 12:17:30;;;;;;;;;;;;;;;20.26;35.68;101576.91;5061160;28;19925;-70
2024/03/08 12:19:55;;;;;;;;;;;;;;;20.31;35.65;101570.16;5048972;28;20011;-70
2024/03/08 12:22:24;;;;;;;;;;;;;;;20.28;35.64;101578.41;5060820;28;20882;-70
2024/03/08 12:25:05;;;;;;;;;;;;;;;20.18;35.83;101569.81;5064658;28;19924;-72
2024/03/08 12:27:30;;;;;;;;;;;;;;;20.20;35.90;101571.31;5067947;28;19919;-71
2024/03/08 12:29:55;;;;;;;;;;;;;;;20.22;35.76;101561.38;5063481;28;20450;-73
2024/03/08 12:32:23;;;;;;;;;;;;;;;20.23;35.80;101563.03;5064531;28;19924;-72
2024/03/08 12:34:52;;;;;;;;;;;;;;;20.16;35.76;101551.47;5064488;28;20055;-71
2024/03/08 12:37:17;;;;;;;;;;;;;;;20.17;35.88;101554.94;5062061;28;20410;-71